createdAt,value
2019-05-25T00:00:57.198Z,14.57
2019-05-25T00:03:26.707Z,14.47
2019-05-25T00:05:56.158Z,13.73
2019-05-25T00:08:25.609Z,13.57
2019-05-25T00:10:55.382Z,14.47
2019-05-25T00:13:24.811Z,14.87
2019-05-25T00:15:56.206Z,14.67
2019-05-25T00:18:26.620Z,14.20
2019-05-25T00:20:56.076Z,14.43
2019-05-25T00:23:26.798Z,14.67
2019-05-25T00:25:56.316Z,14.53
2019-05-25T00:28:27.406Z,14.27
2019-05-25T00:30:57.010Z,15.70
2019-05-25T00:33:27.615Z,15.17
2019-05-25T00:35:58.823Z,14.90
2019-05-25T00:38:28.357Z,15.17
2019-05-25T00:40:57.822Z,15.07
2019-05-25T00:43:27.333Z,16.00
2019-05-25T00:45:59.700Z,15.27
2019-05-25T00:48:29.159Z,14.80
2019-05-25T00:51:00.381Z,15.40
2019-05-25T00:53:29.783Z,14.73
2019-05-25T00:56:00.864Z,15.10
2019-05-25T00:58:30.283Z,14.77
2019-05-25T01:01:00.033Z,14.47
2019-05-25T01:03:29.616Z,15.40
2019-05-25T01:05:59.117Z,14.83
2019-05-25T01:08:28.548Z,14.60
2019-05-25T01:10:58.166Z,15.10
2019-05-25T01:13:27.771Z,15.33
2019-05-25T01:15:57.259Z,14.97
2019-05-25T01:18:27.286Z,15.57
2019-05-25T01:20:57.348Z,14.63
2019-05-25T01:23:26.797Z,14.23
2019-05-25T01:25:56.315Z,14.03
2019-05-25T01:28:28.254Z,15.23
2019-05-25T01:31:00.408Z,13.73
2019-05-25T01:33:29.857Z,13.37
2019-05-25T01:36:00.571Z,13.77
2019-05-25T01:38:30.035Z,13.23
2019-05-25T01:41:01.029Z,13.93
2019-05-25T01:43:31.668Z,13.17
2019-05-25T01:46:01.129Z,12.73
2019-05-25T01:48:32.328Z,12.90
2019-05-25T01:51:01.782Z,13.33
2019-05-25T01:53:31.284Z,13.63
2019-05-25T01:56:00.767Z,13.10
2019-05-25T01:58:30.239Z,12.50
2019-05-25T02:00:59.846Z,13.23
2019-05-25T02:03:32.290Z,13.07
2019-05-25T02:06:06.271Z,12.83
2019-05-25T02:08:35.763Z,12.90
2019-05-25T02:11:06.902Z,12.47
2019-05-25T02:13:36.441Z,11.83
2019-05-25T02:16:05.883Z,11.93
2019-05-25T02:18:35.340Z,11.53
2019-05-25T02:21:04.862Z,11.43
2019-05-25T02:23:34.338Z,11.20
2019-05-25T02:26:03.791Z,11.67
2019-05-25T02:28:33.245Z,11.50
2019-05-25T02:31:02.699Z,11.53
2019-05-25T02:33:34.598Z,11.87
2019-05-25T02:36:04.151Z,11.70
2019-05-25T02:38:37.077Z,11.40
2019-05-25T02:41:06.715Z,11.30
2019-05-25T02:43:36.433Z,11.87
2019-05-25T02:48:46.916Z,11.97
2019-05-25T02:51:16.347Z,11.10
2019-05-25T02:53:45.885Z,11.20
2019-05-25T02:56:15.365Z,11.77
2019-05-25T02:58:45.921Z,11.60
2019-05-25T03:01:15.477Z,11.80
2019-05-25T03:03:45.015Z,11.90
2019-05-25T03:06:15.547Z,11.93
2019-05-25T03:08:46.198Z,12.20
2019-05-25T03:11:16.322Z,11.80
2019-05-25T03:13:46.345Z,12.77
2019-05-25T03:16:15.771Z,13.37
2019-05-25T03:18:45.270Z,14.70
2019-05-25T03:21:14.700Z,14.30
2019-05-25T03:23:44.214Z,14.87
2019-05-25T03:26:13.659Z,15.27
2019-05-25T03:28:44.171Z,15.17
2019-05-25T03:31:14.678Z,15.93
2019-05-25T03:33:44.137Z,15.33
2019-05-25T03:36:13.624Z,15.97
2019-05-25T03:38:43.060Z,15.03
2019-05-25T03:41:12.535Z,14.97
2019-05-25T03:43:41.992Z,15.27
2019-05-25T03:46:11.524Z,14.90
2019-05-25T03:48:40.930Z,14.50
2019-05-25T03:51:10.361Z,15.27
2019-05-25T03:53:39.988Z,14.77
2019-05-25T03:56:09.478Z,15.00
2019-05-25T03:58:39.843Z,14.83
2019-05-25T04:01:09.935Z,13.57
2019-05-25T04:03:39.460Z,14.47
2019-05-25T04:06:09.886Z,15.07
2019-05-25T04:08:39.403Z,14.57
2019-05-25T04:11:08.878Z,14.10
2019-05-25T04:13:38.353Z,14.27
2019-05-25T04:16:07.859Z,13.90
2019-05-25T04:18:38.394Z,13.33
2019-05-25T04:21:08.922Z,13.80
2019-05-25T04:23:38.826Z,12.90
2019-05-25T04:26:21.341Z,13.77
2019-05-25T04:28:39.415Z,13.70
2019-05-25T04:31:09.888Z,14.10
2019-05-25T04:33:39.442Z,14.07
2019-05-25T04:36:08.917Z,14.53
2019-05-25T04:38:38.611Z,13.53
2019-05-25T04:41:08.145Z,13.90
2019-05-25T04:43:37.692Z,13.73
2019-05-25T04:46:07.140Z,13.87
2019-05-25T04:48:36.659Z,14.67
2019-05-25T04:51:06.098Z,13.77
2019-05-25T04:53:35.571Z,13.97
2019-05-25T04:56:05.100Z,13.70
2019-05-25T04:58:34.563Z,14.27
2019-05-25T05:01:04.071Z,15.00
2019-05-25T05:03:33.552Z,13.90
2019-05-25T05:06:03.057Z,13.43
2019-05-25T05:08:35.514Z,12.30
2019-05-25T05:11:03.640Z,11.93
2019-05-25T05:13:33.130Z,12.70
2019-05-25T05:16:04.803Z,13.23
2019-05-25T05:18:36.118Z,14.40
2019-05-25T05:21:05.535Z,14.13
2019-05-25T05:23:35.040Z,13.23
2019-05-25T05:26:04.554Z,13.87
2019-05-25T05:28:34.024Z,12.40
2019-05-25T05:31:04.551Z,12.83
2019-05-25T05:33:34.055Z,11.93
2019-05-25T05:36:04.342Z,10.53
2019-05-25T05:38:34.840Z,9.73
2019-05-25T05:41:04.470Z,11.10
2019-05-25T05:43:37.164Z,10.60
2019-05-25T05:46:09.220Z,12.50
2019-05-25T05:48:40.727Z,11.90
2019-05-25T05:51:13.390Z,12.20
2019-05-25T05:53:44.957Z,13.20
2019-05-25T05:56:14.405Z,12.30
2019-05-25T05:58:43.840Z,11.43
2019-05-25T06:01:14.559Z,12.03
2019-05-25T06:04:02.174Z,11.63
2019-05-25T06:06:31.867Z,11.40
2019-05-25T06:09:02.537Z,11.70
2019-05-25T06:11:32.039Z,11.47
2019-05-25T06:14:04.901Z,10.20
2019-05-25T06:16:34.307Z,11.43
2019-05-25T06:19:03.855Z,11.53
2019-05-25T06:21:33.330Z,11.20
2019-05-25T06:24:02.790Z,10.97
2019-05-25T06:26:32.258Z,10.23
2019-05-25T06:29:01.797Z,9.77
2019-05-25T06:31:32.900Z,9.23
2019-05-25T06:34:02.336Z,9.83
2019-05-25T06:36:31.811Z,9.77
2019-05-25T06:39:01.235Z,9.97
2019-05-25T06:41:32.821Z,9.33
2019-05-25T06:44:03.422Z,9.40
2019-05-25T06:46:32.900Z,9.27
2019-05-25T06:49:04.072Z,8.77
2019-05-25T06:51:33.556Z,9.10
2019-05-25T06:54:03.062Z,8.50
2019-05-25T06:56:34.574Z,8.47
2019-05-25T06:59:04.579Z,7.83
2019-05-25T07:01:34.000Z,7.00
2019-05-25T07:04:03.639Z,7.30
2019-05-25T07:06:33.892Z,7.60
2019-05-25T07:09:04.865Z,8.13
2019-05-25T07:11:35.376Z,8.10
2019-05-25T07:14:05.164Z,8.10
2019-05-25T07:16:37.506Z,7.07
2019-05-25T07:19:06.970Z,7.53
2019-05-25T07:21:38.076Z,8.37
2019-05-25T07:24:07.635Z,7.83
2019-05-25T07:26:38.482Z,7.27
2019-05-25T07:29:07.967Z,7.17
2019-05-25T07:31:37.485Z,6.57
2019-05-25T07:34:07.037Z,6.67
2019-05-25T07:36:36.474Z,6.90
2019-05-25T07:39:07.294Z,6.53
2019-05-25T07:41:36.751Z,7.53
2019-05-25T07:44:06.284Z,7.60
2019-05-25T07:46:36.610Z,6.63
2019-05-25T07:49:06.142Z,6.07
2019-05-25T07:51:35.614Z,5.83
2019-05-25T07:54:06.591Z,5.30
2019-05-25T07:56:36.020Z,5.47
2019-05-25T07:59:05.490Z,4.77
2019-05-25T08:01:34.916Z,5.03
2019-05-25T08:04:04.563Z,5.60
2019-05-25T08:06:34.657Z,4.90
2019-05-25T08:09:06.434Z,4.60
2019-05-25T08:11:35.964Z,5.37
2019-05-25T08:14:05.470Z,4.70
2019-05-25T08:16:37.917Z,4.67
2019-05-25T08:19:08.524Z,4.63
2019-05-25T08:21:41.632Z,4.50
2019-05-25T08:24:11.108Z,4.97
2019-05-25T08:26:56.604Z,5.07
2019-05-25T08:29:26.331Z,4.97
2019-05-25T08:31:56.278Z,4.73
2019-05-25T08:34:25.751Z,5.10
2019-05-25T08:36:55.170Z,5.87
2019-05-25T08:39:25.066Z,5.20
2019-05-25T08:41:54.495Z,4.60
2019-05-25T08:44:23.953Z,4.90
2019-05-25T08:46:55.318Z,4.70
2019-05-25T08:49:24.702Z,4.80
2019-05-25T08:51:55.068Z,4.97
2019-05-25T08:54:25.363Z,5.80
2019-05-25T08:56:54.822Z,5.90
2019-05-25T08:59:25.042Z,5.43
2019-05-25T09:01:54.713Z,4.87
2019-05-25T09:04:26.721Z,4.83
2019-05-25T09:06:57.757Z,5.35
2019-05-25T09:09:27.227Z,5.00
2019-05-25T09:11:56.726Z,5.45
2019-05-25T09:14:26.288Z,5.20
2019-05-25T09:16:56.196Z,5.03
2019-05-25T09:19:25.742Z,5.67
2019-05-25T09:22:02.681Z,5.70
2019-05-25T09:24:29.797Z,5.42
2019-05-25T09:26:59.691Z,5.60
2019-05-25T09:29:29.159Z,5.42
2019-05-25T09:31:58.647Z,5.80
2019-05-25T09:34:28.122Z,5.70
2019-05-25T09:37:01.106Z,5.17
2019-05-25T09:39:30.738Z,5.70
2019-05-25T09:42:01.719Z,5.40
2019-05-25T09:44:32.466Z,5.70
2019-05-25T09:47:02.836Z,6.12
2019-05-25T09:49:32.339Z,6.10
2019-05-25T09:52:01.799Z,5.83
2019-05-25T09:54:32.227Z,5.72
2019-05-25T09:57:04.584Z,6.03
2019-05-25T09:59:34.106Z,6.22
2019-05-25T10:02:03.683Z,5.92
2019-05-25T10:04:36.077Z,6.22
2019-05-25T10:07:08.402Z,5.87
2019-05-25T10:09:42.716Z,5.80
2019-05-25T10:12:18.540Z,6.10
2019-05-25T10:14:55.167Z,5.62
2019-05-25T10:17:25.798Z,5.72
2019-05-25T10:19:57.025Z,6.00
2019-05-25T10:22:26.469Z,5.83
2019-05-25T10:24:57.604Z,7.70
2019-05-25T10:27:27.060Z,5.75
2019-05-25T10:29:56.602Z,6.00
2019-05-25T10:32:26.039Z,6.00
2019-05-25T10:34:56.874Z,6.00
2019-05-25T10:37:26.343Z,6.25
2019-05-25T10:39:59.531Z,6.10
2019-05-25T10:42:28.945Z,6.42
2019-05-25T10:44:58.396Z,5.87
2019-05-25T10:47:27.944Z,6.50
2019-05-25T10:49:57.403Z,6.00
2019-05-25T10:52:26.870Z,6.15
2019-05-25T10:54:56.331Z,5.42
2019-05-25T10:57:25.830Z,5.80
2019-05-25T10:59:55.347Z,6.05
2019-05-25T11:02:24.806Z,5.62
2019-05-25T11:04:54.313Z,6.53
2019-05-25T11:07:27.870Z,5.97
2019-05-25T11:09:58.887Z,5.80
2019-05-25T11:12:29.869Z,6.67
2019-05-25T11:14:59.386Z,6.25
2019-05-25T11:17:31.417Z,6.05
2019-05-25T11:20:01.995Z,7.15
2019-05-25T11:22:31.557Z,6.28
2019-05-25T11:25:01.502Z,6.10
2019-05-25T11:27:32.389Z,6.40
2019-05-25T11:30:08.887Z,6.70
2019-05-25T11:32:34.304Z,5.97
2019-05-25T11:35:06.731Z,6.10
2019-05-25T11:37:39.956Z,6.08
2019-05-25T11:40:10.546Z,6.22
2019-05-25T11:42:41.351Z,6.70
2019-05-25T11:45:11.328Z,6.35
2019-05-25T11:47:42.331Z,6.20
2019-05-25T11:50:13.239Z,6.30
2019-05-25T11:52:45.033Z,6.72
2019-05-25T11:55:16.820Z,6.15
2019-05-25T11:57:46.383Z,5.67
2019-05-25T12:00:24.859Z,5.33
2019-05-25T12:02:49.591Z,5.03
2019-05-25T12:05:19.698Z,5.17
2019-05-25T12:07:51.652Z,5.47
2019-05-25T12:10:22.613Z,4.97
2019-05-25T12:12:52.078Z,5.03
2019-05-25T12:15:23.130Z,5.28
2019-05-25T12:17:54.243Z,5.12
2019-05-25T12:20:23.799Z,5.15
2019-05-25T12:22:55.665Z,5.30
2019-05-25T12:25:26.129Z,5.05
2019-05-25T12:27:55.653Z,5.08
2019-05-25T12:30:39.819Z,5.40
2019-05-25T12:32:57.181Z,5.67
2019-05-25T12:35:26.707Z,4.75
2019-05-25T12:37:56.233Z,5.50
2019-05-25T12:40:25.672Z,5.70
2019-05-25T12:42:55.152Z,5.60
2019-05-25T12:45:24.625Z,6.20
2019-05-25T12:47:55.385Z,5.58
2019-05-25T12:50:24.998Z,5.50
2019-05-25T12:52:54.461Z,5.40
2019-05-25T12:55:25.020Z,6.78
2019-05-25T12:57:55.038Z,5.25
2019-05-25T13:00:24.616Z,5.85
2019-05-25T13:02:55.595Z,5.75
2019-05-25T13:05:34.282Z,6.65
2019-05-25T13:07:58.484Z,6.92
2019-05-25T13:10:29.550Z,7.78
2019-05-25T13:13:01.953Z,8.18
2019-05-25T13:15:30.065Z,8.18
2019-05-25T13:18:02.468Z,8.10
2019-05-25T13:20:35.266Z,7.28
2019-05-25T13:23:05.883Z,7.55
2019-05-25T13:25:35.393Z,7.03
2019-05-25T13:28:05.608Z,7.22
2019-05-25T13:30:35.056Z,7.17
2019-05-25T13:33:04.726Z,7.28
2019-05-25T13:35:34.264Z,8.88
2019-05-25T13:38:03.804Z,8.68
2019-05-25T13:40:33.324Z,9.08
2019-05-25T13:43:02.838Z,7.90
2019-05-25T13:45:32.322Z,9.03
2019-05-25T13:48:02.598Z,8.28
2019-05-25T13:50:32.100Z,8.48
2019-05-25T13:53:03.155Z,9.03
2019-05-25T13:55:32.593Z,9.05
2019-05-25T13:58:02.495Z,9.13
2019-05-25T14:00:35.678Z,10.88
2019-05-25T14:03:07.998Z,9.48
2019-05-25T14:05:37.449Z,9.83
2019-05-25T14:08:08.463Z,9.58
2019-05-25T14:10:39.236Z,10.32
2019-05-25T14:13:10.432Z,10.35
2019-05-25T14:15:39.878Z,9.73
2019-05-25T14:18:09.308Z,8.88
2019-05-25T14:20:38.757Z,9.95
2019-05-25T14:23:08.322Z,9.98
2019-05-25T14:25:37.796Z,8.78
2019-05-25T14:28:07.239Z,8.75
2019-05-25T14:30:36.706Z,10.13
2019-05-25T14:33:06.234Z,9.10
2019-05-25T14:35:35.676Z,9.65
2019-05-25T14:38:06.977Z,9.85
2019-05-25T14:40:37.430Z,9.53
2019-05-25T14:43:07.568Z,8.38
2019-05-25T14:45:40.073Z,8.20
2019-05-25T14:48:15.012Z,7.80
2019-05-25T14:50:51.685Z,9.80
2019-05-25T14:53:24.704Z,8.30
2019-05-25T14:55:54.238Z,8.60
2019-05-25T14:58:29.902Z,8.33
2019-05-25T15:01:02.800Z,7.70
2019-05-25T15:03:32.309Z,7.80
2019-05-25T15:06:04.580Z,7.25
2019-05-25T15:08:36.708Z,7.03
2019-05-25T15:11:06.228Z,6.20
2019-05-25T15:13:36.358Z,6.17
2019-05-25T15:16:05.864Z,7.10
2019-05-25T15:18:35.429Z,6.12
2019-05-25T15:21:04.944Z,5.67
2019-05-25T15:23:34.463Z,5.53
2019-05-25T15:26:05.720Z,5.78
2019-05-25T15:28:35.188Z,5.42
2019-05-25T15:31:05.170Z,5.15
2019-05-25T15:33:34.639Z,5.03
2019-05-25T15:36:04.212Z,4.70
2019-05-25T15:38:34.099Z,4.08
2019-05-25T15:41:03.531Z,3.70
2019-05-25T15:43:33.152Z,4.00
2019-05-25T15:46:02.767Z,4.03
2019-05-25T15:48:32.338Z,4.15
2019-05-25T15:51:02.928Z,3.37
2019-05-25T15:53:44.077Z,3.70
2019-05-25T15:56:10.498Z,3.20
2019-05-25T15:58:40.278Z,3.50
2019-05-25T16:01:11.303Z,3.25
2019-05-25T16:03:42.163Z,3.15
2019-05-25T16:06:12.923Z,2.85
2019-05-25T16:08:42.813Z,2.85
2019-05-25T16:11:14.622Z,2.95
2019-05-25T16:13:48.255Z,2.80
2019-05-25T16:16:32.631Z,2.40
2019-05-25T16:19:06.467Z,2.72
2019-05-25T16:21:37.302Z,2.60
2019-05-25T16:24:08.228Z,2.77
2019-05-25T16:26:46.802Z,2.90
2019-05-25T16:29:19.027Z,3.10
2019-05-25T16:32:02.562Z,3.15
2019-05-25T16:34:34.274Z,3.37
2019-05-25T16:37:03.929Z,3.27
2019-05-25T16:39:34.513Z,3.30
2019-05-25T16:42:04.084Z,3.33
2019-05-25T16:44:33.561Z,3.70
2019-05-25T16:47:03.051Z,3.60
2019-05-25T16:49:33.700Z,3.83
2019-05-25T16:52:03.482Z,3.85
2019-05-25T16:54:33.971Z,3.67
2019-05-25T16:57:03.511Z,4.33
2019-05-25T16:59:32.947Z,4.28
2019-05-25T17:02:02.394Z,3.87
2019-05-25T17:04:31.966Z,4.08
2019-05-25T17:07:06.884Z,4.03
2019-05-25T17:09:41.676Z,3.72
2019-05-25T17:12:11.833Z,4.20
2019-05-25T17:14:41.290Z,3.85
2019-05-25T17:17:10.795Z,3.85
2019-05-25T17:19:40.270Z,3.45
2019-05-25T17:22:11.492Z,3.45
2019-05-25T17:24:40.929Z,3.20
2019-05-25T17:30:07.447Z,3.70
2019-05-25T17:32:38.561Z,3.50
2019-05-25T17:35:08.338Z,4.00
2019-05-25T17:37:39.452Z,3.67
2019-05-25T17:40:09.524Z,3.93
2019-05-25T17:42:43.497Z,4.03
2019-05-25T17:45:13.281Z,4.30
2019-05-25T17:47:44.264Z,3.80
2019-05-25T17:50:15.822Z,4.20
2019-05-25T17:52:50.879Z,4.27
2019-05-25T17:55:20.495Z,4.37
2019-05-25T17:57:50.811Z,4.20
2019-05-25T18:00:23.486Z,4.00
2019-05-25T18:02:53.236Z,3.87
2019-05-25T18:05:22.647Z,3.60
2019-05-25T18:07:52.503Z,3.87
2019-05-25T18:10:23.179Z,3.70
2019-05-25T18:12:54.217Z,4.40
2019-05-25T18:15:25.987Z,4.13
2019-05-25T18:17:59.103Z,3.70
2019-05-25T18:20:28.619Z,3.77
2019-05-25T18:22:58.140Z,3.67
2019-05-25T18:25:27.576Z,3.37
2019-05-25T18:27:57.031Z,3.23
2019-05-25T18:30:27.011Z,3.50
2019-05-25T18:32:56.464Z,3.30
2019-05-25T18:35:26.987Z,2.90
2019-05-25T18:37:56.419Z,2.93
2019-05-25T18:40:26.032Z,3.20
2019-05-25T18:42:55.695Z,3.30
2019-05-25T18:45:33.030Z,3.40
2019-05-25T18:48:02.407Z,3.70
2019-05-25T18:50:39.080Z,3.40
2019-05-25T18:53:08.224Z,3.33
2019-05-25T18:55:51.023Z,3.10
2019-05-25T18:58:28.717Z,3.20
2019-05-25T19:01:19.085Z,3.20
2019-05-25T19:06:43.845Z,3.50
2019-05-25T19:09:14.513Z,3.70
2019-05-25T19:11:45.568Z,3.50
2019-05-25T19:14:15.031Z,3.87
2019-05-25T19:16:44.545Z,3.70
2019-05-25T19:19:14.004Z,4.00
2019-05-25T19:21:44.970Z,4.17
2019-05-25T19:24:14.431Z,4.43
2019-05-25T19:26:43.897Z,4.60
2019-05-25T19:29:15.783Z,4.90
2019-05-25T19:31:45.371Z,4.30
2019-05-25T19:34:14.841Z,4.57
2019-05-25T19:36:44.312Z,4.10
2019-05-25T19:39:13.859Z,4.43
2019-05-25T19:41:43.392Z,4.77
2019-05-25T19:44:12.785Z,4.40
2019-05-25T19:46:43.936Z,4.40
2019-05-25T19:49:13.420Z,4.50
2019-05-25T19:51:42.884Z,4.80
2019-05-25T19:54:14.843Z,4.60
2019-05-25T19:56:45.609Z,4.80
2019-05-25T19:59:15.112Z,4.80
2019-05-25T20:01:44.592Z,4.53
2019-05-25T20:04:14.654Z,4.60
2019-05-25T20:06:44.670Z,5.63
2019-05-25T20:09:14.060Z,5.00
2019-05-25T20:11:43.617Z,4.77
2019-05-25T20:14:15.257Z,5.17
2019-05-25T20:16:44.724Z,4.80
2019-05-25T20:19:14.223Z,5.13
2019-05-25T20:21:45.941Z,5.37
2019-05-25T20:24:15.942Z,5.90
2019-05-25T20:26:45.638Z,5.40
2019-05-25T20:29:15.187Z,5.57
2019-05-25T20:31:44.723Z,5.83
2019-05-25T20:34:14.212Z,5.37
2019-05-25T20:36:43.728Z,5.80
2019-05-25T20:39:13.180Z,6.00
2019-05-25T20:41:42.633Z,5.57
2019-05-25T20:44:12.111Z,5.17
2019-05-25T20:46:41.614Z,5.70
2019-05-25T20:49:12.782Z,5.70
2019-05-25T20:51:45.140Z,5.40
2019-05-25T20:54:15.169Z,5.73
2019-05-25T20:56:44.696Z,5.30
2019-05-25T20:59:14.224Z,5.57
2019-05-25T21:01:44.139Z,5.87
2019-05-25T21:04:13.592Z,5.87
2019-05-25T21:06:43.049Z,6.20
2019-05-25T21:09:12.505Z,6.30
2019-05-25T21:11:41.976Z,6.20
2019-05-25T21:14:11.755Z,6.13
2019-05-25T21:16:41.264Z,6.03
2019-05-25T21:19:10.714Z,5.33
2019-05-25T21:21:40.231Z,5.60
2019-05-25T21:24:09.638Z,5.73
2019-05-25T21:26:39.078Z,5.50
2019-05-25T21:29:08.530Z,5.60
2019-05-25T21:31:38.555Z,5.97
2019-05-25T21:34:08.194Z,5.27
2019-05-25T21:36:37.655Z,5.10
2019-05-25T21:39:07.923Z,6.30
2019-05-25T21:41:39.198Z,6.30
2019-05-25T21:44:08.641Z,6.10
2019-05-25T21:46:38.105Z,5.93
2019-05-25T21:49:08.403Z,5.90
2019-05-25T21:51:37.901Z,5.23
2019-05-25T21:54:07.440Z,5.43
2019-05-25T21:56:38.528Z,5.43
2019-05-25T21:59:09.544Z,5.60
2019-05-25T22:01:40.573Z,5.40
2019-05-25T22:04:10.830Z,5.83
2019-05-25T22:06:40.260Z,5.87
2019-05-25T22:09:09.696Z,5.73
2019-05-25T22:11:40.798Z,5.97
2019-05-25T22:14:10.263Z,6.37
2019-05-25T22:16:39.736Z,5.70
2019-05-25T22:19:09.184Z,6.13
2019-05-25T22:21:38.683Z,5.73
2019-05-25T22:24:08.118Z,5.73
2019-05-25T22:26:37.588Z,6.33
2019-05-25T22:29:07.127Z,5.87
2019-05-25T22:31:36.585Z,5.70
2019-05-25T22:34:06.054Z,5.93
2019-05-25T22:36:40.333Z,6.10
2019-05-25T22:39:08.357Z,5.90
2019-05-25T22:41:44.215Z,5.83
2019-05-25T22:44:13.760Z,6.37
2019-05-25T22:46:43.214Z,5.93
2019-05-25T22:49:12.677Z,6.27
2019-05-25T22:51:42.154Z,5.80
2019-05-25T22:54:11.592Z,6.00
2019-05-25T22:56:41.028Z,6.03
2019-05-25T22:59:10.474Z,6.00
2019-05-25T23:01:39.935Z,6.07
2019-05-25T23:04:10.146Z,6.30
2019-05-25T23:06:56.052Z,6.53
2019-05-25T23:09:10.762Z,6.70
2019-05-25T23:11:40.238Z,7.53
2019-05-25T23:14:12.312Z,7.70
2019-05-25T23:16:43.663Z,7.77
2019-05-25T23:19:13.096Z,7.53
2019-05-25T23:21:42.552Z,7.87
2019-05-25T23:24:12.072Z,7.87
2019-05-25T23:26:41.512Z,8.03
2019-05-25T23:29:12.020Z,8.13
2019-05-25T23:31:42.188Z,9.33
2019-05-25T23:34:11.693Z,9.40
2019-05-25T23:36:41.103Z,8.83
2019-05-25T23:39:10.673Z,8.93
2019-05-25T23:41:40.186Z,10.60
2019-05-25T23:44:10.026Z,11.13
2019-05-25T23:46:39.592Z,12.57
2019-05-25T23:49:09.066Z,12.97
2019-05-25T23:51:38.522Z,10.17
2019-05-25T23:54:08.011Z,9.37
2019-05-25T23:56:37.441Z,7.47
2019-05-25T23:59:06.951Z,7.80
